createdAt,value
2022-12-18T00:01:22.047Z,48.88
2022-12-18T00:03:49.192Z,42.25
2022-12-18T00:06:16.677Z,46.13
2022-12-18T00:08:43.548Z,42.65
2022-12-18T00:11:13.668Z,51.35
2022-12-18T00:13:40.951Z,47.53
2022-12-18T00:16:10.327Z,49.08
2022-12-18T00:18:37.343Z,50.78
2022-12-18T00:21:07.256Z,52.17
2022-12-18T00:23:35.713Z,57.75
2022-12-18T00:26:03.778Z,58.63
2022-12-18T00:28:30.192Z,55.63
2022-12-18T00:31:08.401Z,55.88
2022-12-18T00:33:36.212Z,53.85
2022-12-18T00:36:05.490Z,44.03
2022-12-18T00:38:31.926Z,45.05
2022-12-18T00:40:58.329Z,44.50
2022-12-18T00:43:24.735Z,50.70
2022-12-18T00:45:51.430Z,48.85
2022-12-18T00:48:17.931Z,53.58
2022-12-18T00:50:44.348Z,50.92
2022-12-18T00:53:11.066Z,49.83
2022-12-18T00:55:41.432Z,50.75
2022-12-18T00:58:08.748Z,53.90
2022-12-18T01:00:36.019Z,56.42
2022-12-18T01:03:03.068Z,53.65
2022-12-18T01:05:29.523Z,50.22
2022-12-18T01:07:58.133Z,45.92
2022-12-18T01:10:24.735Z,55.97
2022-12-18T01:12:51.273Z,56.75
2022-12-18T01:15:18.382Z,50.30
2022-12-18T01:17:44.981Z,47.22
2022-12-18T01:20:12.996Z,51.35
2022-12-18T01:22:39.554Z,59.28
2022-12-18T01:25:06.527Z,48.28
2022-12-18T01:27:34.880Z,49.20
2022-12-18T01:30:01.283Z,50.80
2022-12-18T01:32:31.377Z,47.92
2022-12-18T01:34:57.855Z,49.67
2022-12-18T01:37:24.347Z,53.13
2022-12-18T01:39:50.897Z,44.08
2022-12-18T01:42:17.618Z,51.58
2022-12-18T01:45:02.621Z,50.88
2022-12-18T01:47:54.418Z,55.40
2022-12-18T01:50:37.235Z,61.38
2022-12-18T01:53:08.339Z,57.78
2022-12-18T01:55:43.178Z,59.25
2022-12-18T01:58:11.078Z,55.53
2022-12-18T02:00:37.532Z,49.58
2022-12-18T02:03:04.233Z,50.40
2022-12-18T02:05:49.802Z,50.20
2022-12-18T02:08:34.761Z,51.05
2022-12-18T02:11:33.850Z,53.60
2022-12-18T02:14:35.858Z,52.22
2022-12-18T02:17:08.619Z,51.95
2022-12-18T02:20:07.521Z,51.63
2022-12-18T02:22:42.886Z,58.75
2022-12-18T02:25:12.113Z,55.38
2022-12-18T02:27:40.203Z,50.15
2022-12-18T02:30:08.308Z,50.45
2022-12-18T02:32:40.757Z,47.05
2022-12-18T02:35:11.657Z,51.78
2022-12-18T02:37:41.871Z,55.50
2022-12-18T02:40:09.359Z,51.78
2022-12-18T02:42:35.845Z,63.15
2022-12-18T02:45:02.238Z,49.35
2022-12-18T02:47:33.596Z,50.85
2022-12-18T02:50:03.409Z,51.17
2022-12-18T02:52:32.807Z,47.25
2022-12-18T02:55:17.637Z,52.17
2022-12-18T02:57:51.220Z,58.53
2022-12-18T03:00:22.777Z,58.17
2022-12-18T03:03:01.987Z,59.42
2022-12-18T03:05:39.574Z,57.47
2022-12-18T03:08:18.943Z,56.47
2022-12-18T03:10:55.589Z,60.97
2022-12-18T03:13:29.401Z,60.38
2022-12-18T03:15:58.353Z,56.55
2022-12-18T03:18:31.212Z,64.75
2022-12-18T03:21:01.171Z,63.25
2022-12-18T03:23:32.340Z,63.40
2022-12-18T03:26:07.247Z,63.50
2022-12-18T03:28:38.511Z,57.92
2022-12-18T03:31:08.442Z,60.47
2022-12-18T03:34:04.284Z,61.72
2022-12-18T03:36:32.044Z,60.47
2022-12-18T03:38:58.570Z,62.85
2022-12-18T03:41:50.363Z,59.78
2022-12-18T03:44:43.919Z,73.07
2022-12-18T03:47:20.404Z,72.18
2022-12-18T03:49:56.960Z,65.75
2022-12-18T03:52:23.335Z,72.13
2022-12-18T03:54:50.339Z,69.68
2022-12-18T03:57:21.682Z,74.80
2022-12-18T04:02:18.364Z,78.78
2022-12-18T04:04:47.691Z,79.22
2022-12-18T04:07:15.268Z,69.60
2022-12-18T04:09:42.916Z,76.32
2022-12-18T04:12:10.196Z,67.25
2022-12-18T04:14:36.694Z,65.78
2022-12-18T04:17:03.782Z,66.93
2022-12-18T04:19:30.163Z,66.35
2022-12-18T04:21:56.607Z,71.45
2022-12-18T04:24:23.061Z,61.38
2022-12-18T04:26:49.493Z,68.72
2022-12-18T04:29:15.983Z,64.20
2022-12-18T04:31:42.378Z,62.13
2022-12-18T04:34:08.758Z,65.43
2022-12-18T04:36:35.259Z,67.80
2022-12-18T04:39:01.678Z,68.15
2022-12-18T04:41:28.099Z,68.68
2022-12-18T04:43:54.592Z,74.78
2022-12-18T04:46:21.110Z,71.25
2022-12-18T04:48:47.907Z,69.45
2022-12-18T04:51:14.473Z,69.88
2022-12-18T04:53:41.346Z,76.38
2022-12-18T04:56:11.433Z,79.53
2022-12-18T04:58:39.056Z,76.13
2022-12-18T05:01:06.115Z,79.63
2022-12-18T05:03:32.608Z,86.45
2022-12-18T05:05:59.072Z,81.03
2022-12-18T05:08:25.521Z,75.78
2022-12-18T05:11:10.848Z,79.00
2022-12-18T05:13:38.984Z,80.55
2022-12-18T05:16:06.641Z,70.32
2022-12-18T05:18:33.267Z,73.63
2022-12-18T05:20:59.859Z,77.45
2022-12-18T05:23:26.375Z,72.00
2022-12-18T05:25:58.180Z,65.03
2022-12-18T05:28:26.497Z,69.35
2022-12-18T05:30:54.838Z,75.82
2022-12-18T05:33:23.119Z,68.80
2022-12-18T05:35:54.343Z,65.07
2022-12-18T05:38:22.503Z,72.50
2022-12-18T05:40:49.829Z,68.97
2022-12-18T05:43:20.938Z,59.67
2022-12-18T05:45:48.803Z,66.13
2022-12-18T05:48:16.051Z,71.00
2022-12-18T05:50:46.289Z,66.28
2022-12-18T05:53:14.489Z,72.05
2022-12-18T05:55:42.621Z,69.70
2022-12-18T05:58:10.635Z,70.15
2022-12-18T06:00:42.073Z,71.80
2022-12-18T06:03:10.356Z,76.30
2022-12-18T06:05:46.311Z,67.28
2022-12-18T06:08:14.098Z,74.53
2022-12-18T06:10:41.814Z,62.70
2022-12-18T06:13:08.449Z,70.78
2022-12-18T06:15:38.177Z,68.00
2022-12-18T06:18:04.811Z,66.90
2022-12-18T06:20:33.649Z,64.45
2022-12-18T06:23:00.736Z,65.70
2022-12-18T06:25:27.149Z,68.05
2022-12-18T06:27:53.610Z,75.18
2022-12-18T06:30:20.192Z,79.57
2022-12-18T06:32:48.623Z,70.15
2022-12-18T06:35:18.158Z,68.35
2022-12-18T06:37:45.281Z,69.75
2022-12-18T06:40:11.668Z,68.28
2022-12-18T06:42:38.114Z,73.88
2022-12-18T06:45:04.886Z,85.97
2022-12-18T06:47:31.249Z,75.97
2022-12-18T06:49:57.662Z,75.32
2022-12-18T06:52:24.060Z,70.97
2022-12-18T06:54:50.585Z,67.22
2022-12-18T06:57:16.972Z,70.43
2022-12-18T06:59:43.365Z,64.80
2022-12-18T07:02:13.513Z,68.43
2022-12-18T07:04:39.978Z,67.57
2022-12-18T07:07:06.432Z,73.95
2022-12-18T07:09:32.830Z,71.53
2022-12-18T07:11:59.248Z,59.28
2022-12-18T07:14:26.019Z,61.83
2022-12-18T07:16:52.456Z,68.88
2022-12-18T07:19:18.877Z,72.75
2022-12-18T07:21:45.264Z,76.65
2022-12-18T07:24:11.664Z,63.30
2022-12-18T07:26:38.224Z,65.00
2022-12-18T07:29:04.615Z,68.72
2022-12-18T07:31:31.168Z,72.85
2022-12-18T07:33:57.843Z,76.50
2022-12-18T07:36:24.420Z,67.75
2022-12-18T07:38:52.405Z,81.00
2022-12-18T07:41:19.719Z,71.80
2022-12-18T07:43:46.543Z,69.15
2022-12-18T07:46:16.541Z,69.72
2022-12-18T07:48:44.301Z,65.68
2022-12-18T07:51:13.403Z,73.22
2022-12-18T07:53:40.961Z,72.90
2022-12-18T07:58:57.497Z,70.75
2022-12-18T08:01:24.187Z,58.20
2022-12-18T08:03:52.314Z,74.95
2022-12-18T08:06:19.616Z,64.55
2022-12-18T08:08:49.756Z,68.90
2022-12-18T08:11:16.735Z,67.68
2022-12-18T08:13:43.421Z,70.07
2022-12-18T08:16:10.065Z,58.60
2022-12-18T08:18:38.343Z,64.13
2022-12-18T08:21:21.364Z,74.80
2022-12-18T08:23:48.796Z,72.30
2022-12-18T08:26:16.119Z,72.18
2022-12-18T08:28:42.838Z,78.80
2022-12-18T08:31:09.931Z,77.18
2022-12-18T08:33:38.837Z,73.60
2022-12-18T08:36:06.428Z,65.93
2022-12-18T08:38:33.872Z,66.40
2022-12-18T08:41:10.074Z,66.93
2022-12-18T08:43:55.147Z,61.13
2022-12-18T08:46:23.570Z,63.78
2022-12-18T08:48:52.462Z,70.10
2022-12-18T08:51:19.505Z,63.05
2022-12-18T08:53:46.748Z,68.25
2022-12-18T08:56:14.919Z,67.45
2022-12-18T08:58:42.393Z,68.82
2022-12-18T09:01:11.441Z,65.95
2022-12-18T09:03:39.068Z,65.45
2022-12-18T09:06:06.879Z,70.30
2022-12-18T09:08:33.444Z,62.08
2022-12-18T09:10:59.829Z,64.43
2022-12-18T09:13:26.225Z,68.75
2022-12-18T09:15:54.750Z,78.72
2022-12-18T09:18:22.365Z,76.78
2022-12-18T09:20:48.849Z,63.55
2022-12-18T09:23:15.493Z,63.00
2022-12-18T09:25:41.946Z,67.10
2022-12-18T09:28:14.178Z,73.70
2022-12-18T09:30:45.604Z,74.18
2022-12-18T09:33:12.324Z,66.68
2022-12-18T09:35:41.473Z,65.47
2022-12-18T09:38:12.164Z,70.60
2022-12-18T09:40:58.610Z,59.72
2022-12-18T09:43:34.809Z,54.90
2022-12-18T09:46:08.660Z,60.97
2022-12-18T09:48:43.855Z,57.80
2022-12-18T09:51:17.725Z,60.05
2022-12-18T09:53:59.342Z,57.80
2022-12-18T09:56:29.307Z,61.40
2022-12-18T09:59:00.703Z,63.75
2022-12-18T10:01:36.344Z,63.00
2022-12-18T10:04:10.368Z,58.03
2022-12-18T10:06:44.939Z,58.30
2022-12-18T10:09:26.657Z,61.72
2022-12-18T10:12:22.334Z,60.22
2022-12-18T10:15:24.635Z,63.97
2022-12-18T10:18:23.456Z,56.78
2022-12-18T10:20:54.758Z,53.95
2022-12-18T10:25:54.321Z,53.50
2022-12-18T10:28:21.589Z,60.53
2022-12-18T10:30:48.071Z,61.30
2022-12-18T10:33:23.475Z,53.30
2022-12-18T10:35:53.412Z,49.53
2022-12-18T10:38:20.134Z,61.05
2022-12-18T10:40:55.955Z,57.30
2022-12-18T10:43:26.654Z,58.20
2022-12-18T10:46:11.078Z,58.67
2022-12-18T10:48:58.659Z,62.75
2022-12-18T10:51:32.380Z,60.83
2022-12-18T10:54:04.328Z,57.88
2022-12-18T10:56:36.132Z,61.65
2022-12-18T10:59:06.000Z,57.42
2022-12-18T11:01:59.077Z,61.33
2022-12-18T11:04:28.744Z,67.53
2022-12-18T11:07:09.761Z,70.68
2022-12-18T11:09:38.577Z,70.05
2022-12-18T11:12:13.820Z,69.30
2022-12-18T11:14:48.251Z,75.68
2022-12-18T11:17:36.497Z,74.28
2022-12-18T11:20:07.870Z,75.93
2022-12-18T11:28:26.561Z,78.10
2022-12-18T11:31:22.585Z,83.72
2022-12-18T11:34:34.349Z,84.80
2022-12-18T11:39:31.470Z,76.88
2022-12-18T11:42:11.024Z,71.78
2022-12-18T11:45:14.131Z,87.28
2022-12-18T11:47:46.854Z,87.55
2022-12-18T11:50:35.669Z,84.13
2022-12-18T11:53:06.154Z,77.40
2022-12-18T11:55:59.939Z,78.32
2022-12-18T11:58:57.165Z,84.35
2022-12-18T12:01:56.303Z,69.40
2022-12-18T12:05:05.082Z,82.03
2022-12-18T12:07:49.476Z,73.50
2022-12-18T12:10:29.482Z,80.05
2022-12-18T12:20:04.784Z,72.00
2022-12-18T12:22:45.076Z,68.00
2022-12-18T12:28:33.219Z,59.45
2022-12-18T12:31:35.349Z,54.92
2022-12-18T12:34:19.962Z,62.95
2022-12-18T12:37:31.716Z,57.90
2022-12-18T12:43:22.068Z,59.38
2022-12-18T12:45:55.050Z,59.40
2022-12-18T12:48:51.476Z,62.70
2022-12-18T12:51:26.363Z,62.80
2022-12-18T12:54:01.908Z,64.45
2022-12-18T12:56:57.687Z,54.00
2022-12-18T12:59:58.808Z,54.40
2022-12-18T13:05:07.552Z,55.10
2022-12-18T13:07:43.204Z,65.65
2022-12-18T13:10:34.834Z,63.15
2022-12-18T13:13:23.133Z,60.78
2022-12-18T13:16:17.462Z,56.45
2022-12-18T13:18:53.979Z,64.35
2022-12-18T13:21:37.146Z,61.15
2022-12-18T13:24:33.071Z,69.88
2022-12-18T13:27:41.175Z,72.65
2022-12-18T13:30:42.324Z,59.90
2022-12-18T13:33:43.126Z,65.10
2022-12-18T13:36:37.764Z,54.40
2022-12-18T13:45:39.949Z,46.63
2022-12-18T13:48:17.082Z,57.47
2022-12-18T13:50:43.748Z,57.95
2022-12-18T13:53:23.112Z,53.20
2022-12-18T13:55:51.195Z,51.45
2022-12-18T13:58:17.925Z,50.08
2022-12-18T14:00:45.194Z,53.10
2022-12-18T14:03:27.140Z,49.40
2022-12-18T14:06:09.074Z,42.60
2022-12-18T14:08:42.013Z,52.55
2022-12-18T14:11:21.453Z,52.25
2022-12-18T14:13:48.659Z,50.13
2022-12-18T14:16:17.635Z,53.92
2022-12-18T14:18:53.166Z,46.58
2022-12-18T14:21:24.173Z,56.47
2022-12-18T14:24:06.395Z,57.83
2022-12-18T14:26:34.194Z,61.38
2022-12-18T14:29:24.112Z,59.47
2022-12-18T14:32:08.439Z,60.78
2022-12-18T14:34:38.386Z,65.28
2022-12-18T14:37:05.084Z,64.88
2022-12-18T14:39:31.655Z,60.50
2022-12-18T14:41:58.140Z,59.58
2022-12-18T14:44:24.600Z,60.55
2022-12-18T14:46:52.075Z,58.55
2022-12-18T14:49:24.526Z,55.50
2022-12-18T14:51:54.420Z,57.05
2022-12-18T14:54:22.575Z,55.42
2022-12-18T14:56:52.904Z,65.07
2022-12-18T14:59:25.257Z,63.28
2022-12-18T15:02:11.874Z,60.80
2022-12-18T15:04:41.664Z,63.40
2022-12-18T15:07:14.815Z,63.75
2022-12-18T15:09:43.946Z,66.38
2022-12-18T15:13:12.104Z,64.75
2022-12-18T15:15:38.827Z,60.88
2022-12-18T15:18:18.478Z,61.03
2022-12-18T15:20:57.103Z,49.42
2022-12-18T15:23:26.393Z,53.15
2022-12-18T15:26:01.452Z,59.38
2022-12-18T15:28:35.432Z,58.10
2022-12-18T15:31:04.841Z,57.67
2022-12-18T15:33:37.050Z,56.90
2022-12-18T15:36:06.498Z,58.30
2022-12-18T15:38:33.099Z,56.83
2022-12-18T15:40:59.714Z,53.17
2022-12-18T15:43:36.109Z,57.45
2022-12-18T15:46:04.591Z,54.40
2022-12-18T15:48:32.929Z,57.60
2022-12-18T15:50:59.523Z,62.13
2022-12-18T15:53:31.195Z,61.80
2022-12-18T15:56:17.231Z,54.22
2022-12-18T15:58:43.739Z,57.92
2022-12-18T16:01:11.688Z,63.92
2022-12-18T16:03:38.804Z,62.83
2022-12-18T16:06:05.763Z,55.17
2022-12-18T16:08:32.418Z,52.33
2022-12-18T16:10:59.263Z,54.60
2022-12-18T16:13:25.675Z,59.45
2022-12-18T16:15:52.191Z,57.65
2022-12-18T16:18:18.661Z,58.42
2022-12-18T16:20:45.137Z,58.25
2022-12-18T16:23:11.515Z,55.45
2022-12-18T16:25:37.960Z,62.70
2022-12-18T16:28:04.565Z,60.47
2022-12-18T16:30:38.099Z,56.63
2022-12-18T16:33:05.589Z,54.03
2022-12-18T16:35:33.950Z,60.80
2022-12-18T16:38:00.584Z,62.05
2022-12-18T16:40:27.083Z,56.65
2022-12-18T16:42:53.658Z,54.10
2022-12-18T16:45:20.227Z,55.90
2022-12-18T16:47:46.817Z,55.85
2022-12-18T16:50:13.329Z,58.95
2022-12-18T16:52:40.039Z,61.53
2022-12-18T16:55:06.772Z,57.83
2022-12-18T16:57:33.819Z,58.53
2022-12-18T17:00:05.182Z,52.95
2022-12-18T17:02:32.402Z,53.80
2022-12-18T17:04:59.506Z,61.70
2022-12-18T17:07:27.080Z,62.38
2022-12-18T17:09:54.820Z,54.95
2022-12-18T17:12:21.661Z,59.92
2022-12-18T17:14:48.195Z,65.45
2022-12-18T17:17:23.791Z,62.15
2022-12-18T17:19:51.432Z,59.65
2022-12-18T17:22:17.899Z,56.10
2022-12-18T17:24:44.362Z,54.22
2022-12-18T17:27:10.818Z,58.65
2022-12-18T17:29:40.103Z,49.83
2022-12-18T17:32:11.729Z,47.35
2022-12-18T17:34:38.479Z,47.25
2022-12-18T17:37:04.907Z,50.45
2022-12-18T17:39:31.318Z,50.08
2022-12-18T17:41:59.340Z,52.83
2022-12-18T17:44:25.896Z,56.28
2022-12-18T17:46:52.367Z,54.05
2022-12-18T17:49:18.812Z,46.65
2022-12-18T17:51:45.226Z,50.95
2022-12-18T17:54:11.736Z,47.70
2022-12-18T17:56:39.101Z,47.25
2022-12-18T17:59:06.865Z,52.15
2022-12-18T18:01:33.471Z,43.78
2022-12-18T18:04:00.713Z,43.42
2022-12-18T18:06:27.730Z,51.83
2022-12-18T18:08:54.240Z,53.58
2022-12-18T18:11:41.119Z,45.72
2022-12-18T18:14:13.300Z,47.25
2022-12-18T18:16:46.154Z,52.15
2022-12-18T18:19:15.971Z,52.33
2022-12-18T18:21:44.675Z,56.70
2022-12-18T18:24:14.213Z,57.83
2022-12-18T18:26:41.651Z,54.30
2022-12-18T18:29:09.181Z,51.58
2022-12-18T18:31:40.953Z,56.33
2022-12-18T18:34:08.520Z,53.65
2022-12-18T18:36:34.984Z,47.33
2022-12-18T18:39:02.066Z,55.25
2022-12-18T18:41:30.379Z,47.85
2022-12-18T18:43:58.344Z,55.25
2022-12-18T18:46:25.994Z,52.65
2022-12-18T18:48:52.765Z,54.47
2022-12-18T18:51:21.513Z,58.58
2022-12-18T18:53:49.572Z,50.47
2022-12-18T18:59:05.722Z,57.08
2022-12-18T19:01:32.832Z,57.90
2022-12-18T19:04:00.690Z,54.72
2022-12-18T19:06:28.398Z,54.88
2022-12-18T19:08:56.291Z,55.35
2022-12-18T19:11:42.431Z,51.25
2022-12-18T19:14:11.092Z,47.55
2022-12-18T19:16:37.881Z,51.47
2022-12-18T19:19:05.837Z,48.65
2022-12-18T19:21:34.134Z,49.40
2022-12-18T19:24:02.650Z,48.28
2022-12-18T19:26:29.573Z,51.42
2022-12-18T19:29:04.661Z,48.50
2022-12-18T19:31:35.550Z,47.30
2022-12-18T19:34:05.349Z,54.33
2022-12-18T19:36:32.564Z,50.03
2022-12-18T19:41:37.737Z,57.67
2022-12-18T19:44:07.528Z,53.40
2022-12-18T19:46:34.543Z,58.80
2022-12-18T19:49:00.978Z,55.88
2022-12-18T19:51:29.705Z,52.25
2022-12-18T19:53:59.307Z,49.50
2022-12-18T19:56:29.856Z,49.03
2022-12-18T19:58:56.336Z,48.78
2022-12-18T20:01:24.645Z,55.70
2022-12-18T20:03:53.652Z,57.47
2022-12-18T20:06:34.138Z,54.65
2022-12-18T20:09:04.114Z,54.78
2022-12-18T20:11:31.907Z,60.83
2022-12-18T20:13:58.370Z,58.85
2022-12-18T20:16:25.040Z,61.45
2022-12-18T20:18:52.301Z,56.08
2022-12-18T20:21:18.931Z,53.75
2022-12-18T20:23:45.882Z,57.53
2022-12-18T20:26:12.865Z,61.10
2022-12-18T20:28:39.370Z,55.67
2022-12-18T20:31:08.463Z,59.40
2022-12-18T20:33:37.686Z,70.65
2022-12-18T20:36:06.816Z,58.00
2022-12-18T20:38:35.381Z,68.50
2022-12-18T20:41:07.680Z,54.55
2022-12-18T20:43:34.218Z,63.00
2022-12-18T20:46:06.161Z,65.38
2022-12-18T20:48:33.460Z,61.75
2022-12-18T20:51:03.621Z,58.38
2022-12-18T20:53:30.656Z,62.08
2022-12-18T20:55:57.268Z,58.28
2022-12-18T20:58:24.051Z,64.35
2022-12-18T21:00:51.536Z,59.97
2022-12-18T21:03:18.790Z,64.30
2022-12-18T21:05:45.376Z,66.15
2022-12-18T21:08:11.921Z,65.88
2022-12-18T21:10:42.336Z,65.53
2022-12-18T21:13:09.513Z,67.63
2022-12-18T21:15:37.771Z,68.53
2022-12-18T21:18:04.443Z,68.00
2022-12-18T21:20:31.076Z,67.53
2022-12-18T21:23:08.563Z,64.32
2022-12-18T21:25:43.372Z,56.88
2022-12-18T21:28:09.926Z,58.55
2022-12-18T21:30:36.554Z,67.80
2022-12-18T21:33:03.205Z,59.30
2022-12-18T21:35:29.794Z,67.63
2022-12-18T21:37:58.640Z,60.95
2022-12-18T21:40:25.153Z,71.50
2022-12-18T21:43:10.279Z,63.95
2022-12-18T21:45:39.647Z,67.32
2022-12-18T21:48:06.074Z,64.75
2022-12-18T21:50:32.486Z,62.00
2022-12-18T21:52:58.853Z,65.93
2022-12-18T21:55:25.585Z,62.47
2022-12-18T21:57:53.749Z,67.68
2022-12-18T22:00:20.257Z,64.40
2022-12-18T22:02:48.346Z,65.95
2022-12-18T22:05:28.748Z,69.10
2022-12-18T22:07:55.119Z,68.32
2022-12-18T22:10:21.516Z,65.07
2022-12-18T22:12:48.920Z,69.32
2022-12-18T22:15:21.516Z,63.58
2022-12-18T22:17:53.450Z,65.97
2022-12-18T22:20:26.472Z,62.58
2022-12-18T22:22:53.373Z,68.00
2022-12-18T22:25:19.828Z,69.45
2022-12-18T22:28:06.233Z,72.18
2022-12-18T22:30:32.846Z,67.97
2022-12-18T22:32:59.559Z,58.95
2022-12-18T22:35:25.965Z,63.10
2022-12-18T22:37:52.496Z,71.53
2022-12-18T22:40:25.383Z,65.03
2022-12-18T22:42:55.867Z,66.43
2022-12-18T22:45:22.301Z,68.60
2022-12-18T22:47:48.769Z,65.43
2022-12-18T22:50:15.517Z,66.00
2022-12-18T22:52:42.329Z,66.22
2022-12-18T22:55:08.975Z,59.85
2022-12-18T22:57:35.480Z,64.88
2022-12-18T23:00:04.905Z,61.50
2022-12-18T23:02:31.483Z,62.05
2022-12-18T23:04:58.024Z,65.22
2022-12-18T23:07:24.390Z,65.25
2022-12-18T23:09:50.863Z,57.80
2022-12-18T23:12:24.850Z,67.18
2022-12-18T23:14:52.715Z,58.58
2022-12-18T23:17:19.173Z,66.82
2022-12-18T23:19:49.029Z,70.05
2022-12-18T23:22:16.613Z,60.55
2022-12-18T23:24:43.007Z,69.03
2022-12-18T23:27:11.597Z,63.65
2022-12-18T23:29:39.078Z,58.22
2022-12-18T23:32:05.488Z,56.03
2022-12-18T23:34:32.045Z,65.97
2022-12-18T23:36:58.615Z,67.63
2022-12-18T23:39:29.800Z,65.72
2022-12-18T23:41:59.492Z,61.33
2022-12-18T23:44:26.104Z,63.85
2022-12-18T23:46:52.716Z,64.72
2022-12-18T23:49:19.192Z,62.08
2022-12-18T23:51:45.597Z,64.95
2022-12-18T23:54:12.041Z,66.07
2022-12-18T23:56:38.472Z,55.22
2022-12-18T23:59:05.022Z,56.25
